Time;durP1;ratioP1;P1;durP2;ratioP2;P2;SDS_P1;SDS_P2;PMS_P1;PMS_P2;Temp;Humidity;BMP_temperature;BMP_pressure;BME280_temperature;BME280_humidity;BME280_pressure;Samples;Min_cycle;Max_cycle;Signal;HPM_P1;HPM_P2
2022/11/07 00:01:20;;;;;;;4.95;1.00;;;10.90;1.00;;;;;;5068781;28;20867;-51
2022/11/07 00:03:45;;;;;;;4.55;1.05;;;10.90;1.00;;;;;;5068845;28;20507;-51
2022/11/07 00:06:11;;;;;;;4.80;1.20;;;10.80;99.90;;;;;;5069717;28;20529;-52
2022/11/07 00:08:37;;;;;;;5.80;0.80;;;10.70;82.00;;;;;;5069952;28;20932;-52
2022/11/07 00:11:04;;;;;;;4.63;1.08;;;10.70;99.90;;;;;;5068775;28;20441;-51
2022/11/07 00:13:30;;;;;;;4.95;1.10;;;10.70;99.90;;;;;;5051654;28;20861;-52
2022/11/07 00:16:00;;;;;;;5.00;1.20;;;10.60;1.00;;;;;;5068855;28;20390;-51
2022/11/07 00:18:25;;;;;;;7.20;1.45;;;10.60;1.00;;;;;;5069315;28;20368;-52
2022/11/07 00:20:51;;;;;;;5.60;1.17;;;10.70;1.00;;;;;;5068734;28;20403;-52
2022/11/07 00:23:16;;;;;;;5.20;1.25;;;10.70;1.00;;;;;;5069150;28;20865;-52
2022/11/07 00:25:42;;;;;;;5.70;1.00;;;10.70;1.00;;;;;;5068156;28;20471;-56
2022/11/07 00:28:08;;;;;;;4.70;1.10;;;10.80;1.00;;;;;;5069150;28;20387;-52
2022/11/07 00:30:34;;;;;;;4.53;0.90;;;10.60;1.00;;;;;;5069263;28;20383;-52
2022/11/07 00:32:59;;;;;;;5.33;1.50;;;10.60;1.00;;;;;;5068081;28;20411;-52
2022/11/07 00:35:25;;;;;;;4.55;0.90;;;10.70;2.80;;;;;;5069199;28;20395;-51
2022/11/07 00:37:53;;;;;;;5.30;1.10;;;10.70;75.90;;;;;;5068713;28;20372;-51
2022/11/07 00:40:19;;;;;;;4.57;1.10;;;10.80;1.00;;;;;;5069046;28;20427;-51
2022/11/07 00:42:44;;;;;;;4.40;0.80;;;10.80;33.70;;;;;;5068530;28;20398;-52
2022/11/07 00:45:10;;;;;;;4.87;1.10;;;10.90;1.00;;;;;;5069304;28;20376;-51
2022/11/07 00:47:36;;;;;;;4.90;1.00;;;11.00;1.00;;;;;;5063803;28;20457;-52
2022/11/07 00:50:02;;;;;;;5.80;1.00;;;11.10;1.00;;;;;;5064561;28;20972;-51
2022/11/07 00:52:27;;;;;;;4.50;1.00;;;11.20;1.00;;;;;;5068412;28;20460;-52
2022/11/07 00:54:53;;;;;;;4.20;0.90;;;11.20;99.90;;;;;;5068349;28;20436;-51
2022/11/07 00:57:18;;;;;;;5.85;0.90;;;11.30;99.90;;;;;;5069103;28;20414;-51
2022/11/07 00:59:44;;;;;;;4.60;0.90;;;11.30;99.90;;;;;;5068495;28;20765;-52
2022/11/07 01:02:09;;;;;;;5.07;1.20;;;11.40;99.90;;;;;;5072201;28;20387;-52
2022/11/07 01:07:20;;;;;;;4.60;0.90;;;11.50;1.00;;;;;;5071340;28;20455;-51
2022/11/07 01:09:46;;;;;;;5.00;0.70;;;11.50;1.00;;;;;;5071289;28;20482;-51
2022/11/07 01:12:11;;;;;;;4.35;0.80;;;11.50;1.00;;;;;;5071820;28;20407;-52
2022/11/07 01:14:37;;;;;;;4.80;0.80;;;11.60;99.90;;;;;;5072290;28;20903;-52
2022/11/07 01:17:03;;;;;;;4.20;0.80;;;11.50;99.90;;;;;;5071119;28;20384;-53
2022/11/07 01:19:28;;;;;;;4.50;0.90;;;11.60;99.90;;;;;;5071388;28;20907;-51
2022/11/07 01:21:54;;;;;;;4.33;0.77;;;11.70;1.00;;;;;;5071041;28;20395;-50
2022/11/07 01:24:20;;;;;;;4.43;0.70;;;11.70;1.00;;;;;;5071717;28;20425;-50
2022/11/07 01:26:48;;;;;;;4.30;0.80;;;11.70;99.90;;;;;;5070988;28;20833;-50
2022/11/07 01:29:18;;;;;;;4.40;0.80;;;11.70;99.90;;;;;;5054263;28;20391;-50
2022/11/07 01:31:44;;;;;;;5.60;0.90;;;11.60;1.00;;;;;;5071023;28;20857;-50
2022/11/07 01:34:10;;;;;;;4.53;0.82;;;11.60;1.00;;;;;;5071496;28;20390;-50
2022/11/07 01:36:36;;;;;;;4.30;0.80;;;11.40;99.90;;;;;;5071850;28;20462;-50
2022/11/07 01:39:04;;;;;;;4.75;0.90;;;11.40;1.00;;;;;;5070732;28;20379;-52
2022/11/07 01:41:34;;;;;;;4.10;0.70;;;11.30;99.90;;;;;;5069117;28;20403;-52
2022/11/07 01:44:20;;;;;;;4.20;0.80;;;11.30;99.90;;;;;;5070594;28;20623;-52
2022/11/07 01:46:46;;;;;;;4.93;0.98;;;11.40;99.90;;;;;;5052533;28;20881;-53
2022/11/07 01:49:16;;;;;;;4.20;0.80;;;11.30;99.90;;;;;;5071050;28;20502;-52
2022/11/07 01:52:03;;;;;;;4.40;0.80;;;11.30;1.00;;;;;;5070439;28;20884;-56
2022/11/07 01:55:20;;;;;;;4.20;0.70;;;11.50;99.90;;;;;;5068166;28;20451;-52
2022/11/07 01:57:52;;;;;;;4.30;0.70;;;11.50;99.90;;;;;;5031998;28;20537;-52
2022/11/07 02:00:21;;;;;;;4.47;0.80;;;11.50;99.90;;;;;;5071039;28;20403;-52
2022/11/07 02:02:51;;;;;;;4.70;1.00;;;11.60;89.20;;;;;;5070337;28;20422;-50
2022/11/07 02:05:32;;;;;;;4.20;0.70;;;11.60;1.00;;;;;;5071091;28;20427;-52
2022/11/07 02:07:58;;;;;;;5.40;0.90;;;11.60;1.00;;;;;;5068529;28;20514;-52
2022/11/07 02:10:25;;;;;;;5.10;1.05;;;11.70;1.00;;;;;;5071040;28;20434;-52
2022/11/07 02:12:51;;;;;;;4.43;0.80;;;11.60;63.50;;;;;;5069690;28;20384;-52
2022/11/07 02:15:17;;;;;;;5.17;0.80;;;11.50;99.90;;;;;;5070974;28;20722;-52
2022/11/07 02:17:43;;;;;;;4.35;0.70;;;11.60;99.90;;;;;;5070522;28;20478;-56
2022/11/07 02:20:09;;;;;;;6.40;0.80;;;11.70;39.80;;;;;;5070751;28;20495;-52
2022/11/07 02:22:54;;;;;;;5.10;0.90;;;11.70;1.00;;;;;;5070595;28;20891;-52
2022/11/07 02:25:20;;;;;;;4.72;0.70;;;11.70;99.90;;;;;;5069547;28;20476;-52
2022/11/07 02:27:49;;;;;;;4.80;0.85;;;11.70;1.00;;;;;;5051786;28;20427;-52
2022/11/07 02:30:18;;;;;;;5.40;0.90;;;11.70;1.00;;;;;;5070755;28;20388;-52
2022/11/07 02:32:45;;;;;;;5.20;0.90;;;11.70;1.00;;;;;;5069716;28;20502;-57
2022/11/07 02:35:45;;;;;;;4.95;1.10;;;11.80;99.90;;;;;;5068275;28;20395;-53
2022/11/07 02:38:18;;;;;;;5.10;0.95;;;11.80;99.90;;;;;;5067639;28;20380;-49
2022/11/07 02:40:48;;;;;;;4.60;0.85;;;11.90;1.00;;;;;;5051931;28;20408;-54
2022/11/07 02:43:17;;;;;;;4.53;1.07;;;12.00;1.00;;;;;;5068352;28;20715;-48
2022/11/07 02:45:45;;;;;;;4.68;1.00;;;12.00;1.00;;;;;;5069658;28;20525;-54
2022/11/07 02:48:10;;;;;;;4.70;1.00;;;12.00;99.90;;;;;;5067526;28;20478;-50
2022/11/07 02:50:36;;;;;;;5.00;0.90;;;12.00;99.90;;;;;;5069913;28;20513;-49
2022/11/07 02:53:02;;;;;;;5.40;1.00;;;12.00;99.90;;;;;;5069246;28;20383;-49
2022/11/07 02:55:27;;;;;;;5.03;0.93;;;12.00;1.00;;;;;;5069993;28;20827;-49
2022/11/07 02:57:53;;;;;;;4.95;0.98;;;12.00;1.00;;;;;;5068981;28;20390;-49
2022/11/07 03:00:19;;;;;;;5.00;0.90;;;12.00;1.00;;;;;;5069819;28;20407;-49
2022/11/07 03:02:45;;;;;;;6.50;1.33;;;12.00;1.00;;;;;;5069251;28;20453;-54
2022/11/07 03:05:12;;;;;;;5.60;1.05;;;11.90;1.00;;;;;;5067289;28;20384;-49
2022/11/07 03:07:38;;;;;;;5.80;1.38;;;12.00;1.00;;;;;;5069558;28;20392;-49
2022/11/07 03:10:04;;;;;;;5.03;1.30;;;11.90;1.00;;;;;;5069127;28;20454;-51
2022/11/07 03:12:29;;;;;;;4.53;0.80;;;12.00;1.00;;;;;;5069571;28;20384;-49
2022/11/07 03:14:55;;;;;;;6.35;1.25;;;11.90;25.80;;;;;;5068894;28;20940;-49
2022/11/07 03:17:20;;;;;;;6.70;0.90;;;12.00;99.90;;;;;;5069866;28;20376;-49
2022/11/07 03:19:46;;;;;;;5.50;1.70;;;11.90;1.00;;;;;;5068915;28;20408;-54
2022/11/07 03:22:12;;;;;;;6.35;1.50;;;12.10;99.90;;;;;;5069773;28;20901;-49
2022/11/07 03:24:37;;;;;;;6.00;1.20;;;12.10;99.90;;;;;;5068858;28;20434;-50
2022/11/07 03:27:03;;;;;;;6.13;1.27;;;12.20;28.10;;;;;;5068753;28;20401;-50
2022/11/07 03:29:28;;;;;;;6.23;1.10;;;12.20;1.00;;;;;;5066851;28;20893;-49
2022/11/07 03:31:54;;;;;;;5.00;1.00;;;12.30;1.00;;;;;;5068520;28;20395;-50
2022/11/07 03:34:20;;;;;;;5.55;1.05;;;12.30;1.00;;;;;;5069804;28;21132;-49
2022/11/07 03:36:45;;;;;;;5.40;1.10;;;12.30;99.90;;;;;;5068450;28;20856;-54
2022/11/07 03:39:11;;;;;;;7.80;1.40;;;12.30;99.90;;;;;;5069389;28;20447;-49
2022/11/07 03:41:36;;;;;;;5.50;1.20;;;12.40;99.90;;;;;;5069281;28;20391;-49
2022/11/07 03:44:02;;;;;;;5.57;1.17;;;12.30;99.90;;;;;;5068377;28;20379;-49
2022/11/07 03:46:27;;;;;;;6.82;2.08;;;12.40;99.90;;;;;;5051131;28;20881;-49
2022/11/07 03:48:53;;;;;;;6.50;1.10;;;12.50;99.90;;;;;;5068230;28;20387;-50
2022/11/07 03:51:19;;;;;;;4.23;0.90;;;12.40;99.90;;;;;;5069082;28;20896;-50
2022/11/07 03:53:44;;;;;;;4.70;1.00;;;12.50;99.90;;;;;;5068728;28;20386;-54
2022/11/07 03:56:10;;;;;;;6.13;1.10;;;12.40;99.90;;;;;;5069059;28;20395;-49
2022/11/07 03:58:37;;;;;;;7.10;1.25;;;12.30;99.90;;;;;;5068946;28;20391;-50
2022/11/07 04:01:03;;;;;;;5.55;1.30;;;12.40;99.90;;;;;;5068207;28;20961;-49
2022/11/07 04:03:29;;;;;;;4.95;1.10;;;12.40;99.90;;;;;;5066663;28;20388;-49
2022/11/07 04:05:55;;;;;;;4.97;1.13;;;12.40;99.90;;;;;;5068686;28;20877;-49
2022/11/07 04:08:21;;;;;;;4.63;0.90;;;12.50;99.90;;;;;;5068904;28;20380;-49
2022/11/07 04:10:46;;;;;;;7.45;1.30;;;12.50;49.60;;;;;;5067567;28;20384;-54
2022/11/07 04:17:17;;;;;;;6.13;1.20;;;13.70;99.90;;;;;;5066374;28;20429;-49
2022/11/07 04:18:54;;;;;;;5.78;1.10;;;12.40;45.90;;;;;;5064968;28;20396;-49
2022/11/07 04:21:20;;;;;;;5.63;1.10;;;12.40;7.10;;;;;;5068991;28;20403;-49
2022/11/07 04:23:46;;;;;;;4.90;1.00;;;12.50;70.60;;;;;;5068160;28;20407;-53
2022/11/07 04:28:55;;;;;;;5.50;1.40;;;12.40;87.60;;;;;;5065735;28;20463;-49
2022/11/07 04:31:21;;;;;;;5.20;1.20;;;12.40;86.00;;;;;;5068545;28;20901;-49
2022/11/07 04:33:47;;;;;;;5.90;1.10;;;12.50;99.90;;;;;;5067508;28;20436;-53
2022/11/07 04:36:12;;;;;;;5.17;0.90;;;12.50;63.70;;;;;;5070085;28;20422;-51
2022/11/07 04:38:38;;;;;;;5.15;1.13;;;12.50;52.80;;;;;;5061799;28;20399;-49
2022/11/07 04:41:04;;;;;;;6.00;1.30;;;12.40;58.20;;;;;;5063957;28;20418;-50
2022/11/07 04:43:29;;;;;;;5.40;1.27;;;12.40;99.90;;;;;;5068693;28;20399;-49
2022/11/07 04:45:55;;;;;;;7.03;1.40;;;12.40;99.90;;;;;;5072163;28;20390;-49
2022/11/07 04:48:21;;;;;;;5.57;1.33;;;12.40;99.90;;;;;;5072913;28;20422;-49
2022/11/07 04:50:47;;;;;;;6.50;1.10;;;12.40;99.90;;;;;;5054346;28;20437;-53
2022/11/07 04:53:14;;;;;;;7.28;1.27;;;12.40;99.90;;;;;;5072687;28;20402;-49
2022/11/07 04:55:40;;;;;;;4.55;1.00;;;12.30;99.90;;;;;;5072824;28;20431;-49
2022/11/07 04:58:06;;;;;;;6.40;1.20;;;12.10;99.90;;;;;;5071736;28;20414;-49
2022/11/07 05:00:32;;;;;;;5.20;1.10;;;12.10;99.90;;;;;;5066170;28;20444;-49
2022/11/07 05:02:57;;;;;;;5.90;0.90;;;12.10;1.00;;;;;;5069202;28;20411;-49
2022/11/07 05:05:23;;;;;;;5.20;0.90;;;12.00;1.00;;;;;;5071082;28;20891;-49
2022/11/07 05:07:48;;;;;;;5.47;1.20;;;11.90;99.90;;;;;;5070430;28;20400;-50
2022/11/07 05:10:21;;;;;;;6.30;1.33;;;11.90;1.00;;;;;;5072690;28;20380;-49
2022/11/07 05:12:46;;;;;;;6.60;1.50;;;11.90;1.00;;;;;;5071738;28;20391;-54
2022/11/07 05:15:13;;;;;;;8.47;1.40;;;11.90;1.00;;;;;;5072605;28;20450;-49
2022/11/07 05:17:38;;;;;;;6.00;1.00;;;11.90;1.50;;;;;;5072171;28;20449;-50
2022/11/07 05:20:05;;;;;;;6.47;1.80;;;11.90;1.00;;;;;;5071407;28;21049;-49
2022/11/07 05:25:14;;;;;;;5.80;1.30;;;12.00;1.00;;;;;;5070680;28;20490;-49
2022/11/07 05:27:40;;;;;;;5.70;1.30;;;11.80;1.00;;;;;;5066248;28;20443;-49
2022/11/07 05:30:06;;;;;;;5.40;1.20;;;11.80;90.60;;;;;;5057033;28;20383;-49
2022/11/07 05:32:37;;;;;;;5.43;1.20;;;11.70;99.90;;;;;;5052350;28;20884;-49
2022/11/07 05:35:05;;;;;;;6.30;1.30;;;11.70;1.00;;;;;;5051175;28;20401;-49
2022/11/07 05:37:31;;;;;;;5.50;1.23;;;11.80;99.90;;;;;;5051854;28;20385;-48
2022/11/07 05:39:56;;;;;;;4.65;1.10;;;11.70;1.00;;;;;;5051220;28;20455;-48
2022/11/07 05:42:22;;;;;;;6.30;1.30;;;11.60;1.00;;;;;;5051840;28;20459;-49
2022/11/07 05:44:48;;;;;;;8.30;1.47;;;11.70;99.90;;;;;;5066569;28;20411;-54
2022/11/07 05:47:13;;;;;;;5.80;1.50;;;11.70;99.90;;;;;;5070940;28;20798;-49
2022/11/07 05:49:39;;;;;;;5.65;1.38;;;11.70;18.30;;;;;;5071922;28;20383;-49
2022/11/07 05:52:05;;;;;;;6.90;1.50;;;11.60;99.90;;;;;;5071115;28;20414;-49
2022/11/07 05:54:31;;;;;;;4.95;1.17;;;11.60;99.90;;;;;;5072058;28;20422;-49
2022/11/07 05:56:57;;;;;;;6.20;1.50;;;11.50;99.90;;;;;;5070085;28;20738;-49
2022/11/07 05:59:23;;;;;;;5.72;1.48;;;11.60;1.00;;;;;;5068653;28;20394;-49
2022/11/07 06:01:49;;;;;;;5.70;1.55;;;11.50;99.90;;;;;;5069727;28;20408;-52
2022/11/07 06:04:14;;;;;;;6.72;1.70;;;11.50;1.00;;;;;;5068551;28;20537;-52
2022/11/07 06:06:40;;;;;;;5.60;1.53;;;11.40;1.00;;;;;;5069637;28;20419;-49
2022/11/07 06:09:05;;;;;;;6.22;1.90;;;11.40;5.70;;;;;;5063538;28;20403;-49
2022/11/07 06:11:31;;;;;;;6.35;1.48;;;11.40;1.00;;;;;;5064431;28;21250;-48
2022/11/07 06:13:57;;;;;;;6.50;1.30;;;11.40;1.00;;;;;;5066755;28;20863;-51
2022/11/07 06:16:23;;;;;;;4.50;1.20;;;11.30;99.90;;;;;;5066769;28;20459;-51
2022/11/07 06:18:49;;;;;;;6.07;1.33;;;11.20;1.00;;;;;;5065156;28;20385;-54
2022/11/07 06:21:15;;;;;;;6.00;1.20;;;11.10;1.00;;;;;;5051117;28;20412;-52
2022/11/07 06:23:41;;;;;;;7.55;1.40;;;11.20;1.00;;;;;;5051329;28;20385;-52
2022/11/07 06:26:08;;;;;;;5.78;1.30;;;11.20;1.00;;;;;;5050342;28;20672;-52
2022/11/07 06:28:34;;;;;;;5.65;1.30;;;11.30;1.00;;;;;;5051222;28;20707;-52
2022/11/07 06:31:01;;;;;;;6.45;1.80;;;11.30;1.00;;;;;;5050584;28;20456;-51
2022/11/07 06:33:28;;;;;;;6.63;1.70;;;11.30;1.00;;;;;;5032881;28;20500;-51
2022/11/07 06:35:54;;;;;;;4.95;1.35;;;11.30;1.00;;;;;;5050290;28;20390;-51
2022/11/07 06:38:20;;;;;;;6.10;1.30;;;11.50;1.00;;;;;;5051196;28;20731;-51
2022/11/07 06:40:45;;;;;;;6.30;1.55;;;11.40;99.90;;;;;;5050871;28;20462;-56
2022/11/07 06:43:17;;;;;;;5.50;1.30;;;11.40;99.90;;;;;;5050300;28;20393;-52
2022/11/07 06:45:44;;;;;;;5.50;1.55;;;11.50;99.90;;;;;;5055246;28;20388;-49
2022/11/07 06:48:10;;;;;;;6.50;1.45;;;11.60;99.90;;;;;;5069677;28;20474;-49
2022/11/07 06:50:36;;;;;;;6.68;1.58;;;11.60;99.90;;;;;;5070316;28;20406;-49
2022/11/07 06:53:10;;;;;;;4.90;1.07;;;11.60;99.90;;;;;;5069983;28;20379;-49
2022/11/07 06:55:36;;;;;;;5.10;1.40;;;11.60;1.00;;;;;;5067536;28;20403;-49
2022/11/07 06:58:03;;;;;;;5.82;1.40;;;11.70;1.00;;;;;;5068561;28;20380;-50
2022/11/07 07:00:31;;;;;;;5.10;1.23;;;11.70;1.00;;;;;;5065685;28;20421;-50
2022/11/07 07:02:57;;;;;;;6.22;1.95;;;11.90;1.00;;;;;;5038645;28;20417;-49
2022/11/07 07:05:22;;;;;;;5.47;1.20;;;11.90;1.00;;;;;;5059393;28;20441;-50
2022/11/07 07:07:48;;;;;;;5.40;1.43;;;12.10;28.10;;;;;;5070424;28;20832;-57
2022/11/07 07:10:14;;;;;;;6.07;1.13;;;12.30;5.80;;;;;;5069546;28;20425;-50
2022/11/07 07:12:40;;;;;;;7.50;1.65;;;12.30;94.30;;;;;;5073436;28;21061;-49
2022/11/07 07:15:06;;;;;;;5.43;1.30;;;12.40;99.90;;;;;;5071475;28;20388;-50
2022/11/07 07:17:32;;;;;;;5.97;1.60;;;12.60;1.00;;;;;;5070335;28;20725;-49
2022/11/07 07:19:58;;;;;;;7.03;1.30;;;12.70;99.90;;;;;;5069365;28;20408;-48
2022/11/07 07:22:23;;;;;;;7.30;1.80;;;12.60;99.90;;;;;;5069419;28;20459;-49
2022/11/07 07:24:51;;;;;;;6.80;1.50;;;12.60;1.00;;;;;;5069297;28;20396;-54
2022/11/07 07:27:19;;;;;;;7.40;1.30;;;12.90;99.90;;;;;;5056154;28;20755;-49
2022/11/07 07:29:45;;;;;;;6.00;1.27;;;13.10;1.00;;;;;;5059307;28;20402;-49
2022/11/07 07:32:10;;;;;;;6.60;1.35;;;13.20;99.90;;;;;;5065526;28;20408;-50
2022/11/07 07:34:36;;;;;;;6.83;1.20;;;13.40;1.00;;;;;;5066695;28;20529;-50
2022/11/07 07:37:02;;;;;;;6.30;1.25;;;13.50;1.00;;;;;;5058163;28;20392;-49
2022/11/07 07:39:27;;;;;;;5.60;1.50;;;13.40;1.00;;;;;;5054581;28;20817;-49
2022/11/07 07:41:53;;;;;;;6.50;1.40;;;13.30;1.00;;;;;;5068808;28;21090;-50
2022/11/07 07:44:18;;;;;;;7.15;1.35;;;13.50;1.00;;;;;;5069562;28;20372;-50
2022/11/07 07:46:44;;;;;;;5.93;1.30;;;13.50;1.00;;;;;;5069378;28;20428;-49
2022/11/07 07:49:10;;;;;;;8.30;1.50;;;13.80;99.90;;;;;;5069034;28;20384;-49
2022/11/07 07:51:35;;;;;;;7.38;1.60;;;13.90;99.90;;;;;;5069705;28;20423;-49
2022/11/07 07:54:01;;;;;;;6.10;1.50;;;14.00;99.90;;;;;;5069002;28;20391;-49
2022/11/07 07:56:26;;;;;;;6.20;1.10;;;13.90;99.90;;;;;;5069484;28;20388;-50
2022/11/07 07:58:52;;;;;;;9.15;1.40;;;14.20;99.90;;;;;;5069049;28;20384;-56
2022/11/07 08:01:18;;;;;;;7.37;1.70;;;14.60;1.00;;;;;;5069209;28;20415;-51
2022/11/07 08:03:44;;;;;;;6.18;1.30;;;15.40;1.00;;;;;;5069689;28;20437;-52
2022/11/07 08:06:09;;;;;;;5.65;1.30;;;16.20;46.60;;;;;;5068682;28;20513;-52
2022/11/07 08:08:35;;;;;;;9.07;1.40;;;16.20;1.00;;;;;;5069716;28;20386;-51
2022/11/07 08:11:04;;;;;;;6.10;1.13;;;16.00;1.00;;;;;;5071699;28;20479;-54
2022/11/07 08:13:30;;;;;;;5.70;1.08;;;15.60;1.00;;;;;;5073857;28;20436;-51
2022/11/07 08:15:56;;;;;;;6.93;1.30;;;15.30;1.00;;;;;;5073052;28;20396;-51
2022/11/07 08:18:22;;;;;;;5.43;1.30;;;14.90;1.00;;;;;;5073608;28;20380;-49
2022/11/07 08:20:49;;;;;;;9.02;1.30;;;14.60;1.00;;;;;;5072987;28;20403;-53
2022/11/07 08:23:15;;;;;;;5.70;1.35;;;14.20;1.00;;;;;;5055303;28;20384;-49
2022/11/07 08:25:41;;;;;;;5.13;1.10;;;13.90;99.90;;;;;;5073202;28;20383;-49
2022/11/07 08:28:07;;;;;;;5.80;1.50;;;13.70;99.90;;;;;;5072766;28;20379;-49
2022/11/07 08:30:34;;;;;;;5.75;1.10;;;13.50;1.00;;;;;;5073323;28;21130;-49
2022/11/07 08:33:02;;;;;;;7.47;1.35;;;13.60;1.00;;;;;;5050579;28;20779;-49
2022/11/07 08:35:28;;;;;;;7.18;1.23;;;13.50;1.00;;;;;;5053353;28;20389;-49
2022/11/07 08:37:54;;;;;;;5.63;1.10;;;13.50;1.00;;;;;;5051900;28;20866;-49
2022/11/07 08:40:21;;;;;;;8.98;1.60;;;13.60;1.00;;;;;;5053047;28;20407;-49
2022/11/07 08:42:46;;;;;;;6.40;1.30;;;13.60;29.60;;;;;;5053324;28;20408;-52
2022/11/07 08:45:13;;;;;;;8.87;1.60;;;13.70;1.00;;;;;;5052587;28;20731;-49
2022/11/07 08:47:39;;;;;;;11.77;1.40;;;13.80;1.00;;;;;;5052884;28;20466;-50
2022/11/07 08:50:05;;;;;;;10.53;1.57;;;13.90;1.00;;;;;;5052419;28;20385;-49
2022/11/07 08:52:30;;;;;;;5.13;1.20;;;14.00;1.00;;;;;;5052574;28;20451;-50
2022/11/07 08:54:56;;;;;;;8.70;1.40;;;14.10;1.00;;;;;;5051778;28;20863;-50
2022/11/07 08:57:21;;;;;;;5.80;1.00;;;14.20;99.90;;;;;;5052907;28;20377;-51
2022/11/07 08:59:47;;;;;;;6.55;1.50;;;14.40;99.90;;;;;;5052502;28;20533;-54
2022/11/07 09:02:13;;;;;;;7.60;1.60;;;14.50;99.90;;;;;;5052292;28;20480;-49
2022/11/07 09:04:38;;;;;;;5.10;1.00;;;14.60;99.90;;;;;;5053246;28;20393;-49
2022/11/07 09:07:04;;;;;;;6.50;1.20;;;14.70;99.90;;;;;;5051817;28;20747;-48
2022/11/07 09:09:30;;;;;;;7.45;1.20;;;14.80;99.90;;;;;;5052761;28;20413;-49
2022/11/07 09:11:55;;;;;;;5.40;1.00;;;15.00;99.90;;;;;;5051737;28;20409;-49
2022/11/07 09:14:21;;;;;;;6.70;1.30;;;14.90;58.10;;;;;;5052546;28;20385;-51
2022/11/07 09:16:46;;;;;;;5.70;1.30;;;14.90;35.10;;;;;;5052429;28;20939;-51
2022/11/07 09:19:12;;;;;;;5.90;1.40;;;15.10;30.10;;;;;;5051797;28;20866;-51
2022/11/07 09:21:38;;;;;;;6.72;1.40;;;15.20;1.00;;;;;;5051013;28;20458;-49
2022/11/07 09:24:04;;;;;;;7.10;1.60;;;14.90;1.00;;;;;;5051573;28;20429;-49
2022/11/07 09:26:29;;;;;;;6.32;1.02;;;15.00;1.00;;;;;;5052557;28;20520;-49
2022/11/07 09:28:55;;;;;;;7.00;1.20;;;14.90;1.00;;;;;;5051423;28;20848;-50
2022/11/07 09:31:21;;;;;;;5.90;1.20;;;14.80;1.00;;;;;;5052057;28;20938;-50
2022/11/07 09:33:46;;;;;;;8.90;1.70;;;14.80;4.60;;;;;;5068688;28;20403;-49
2022/11/07 09:36:12;;;;;;;6.87;1.17;;;14.60;1.00;;;;;;5071187;28;20702;-50
2022/11/07 09:38:38;;;;;;;8.98;1.30;;;14.70;16.20;;;;;;5072056;28;20522;-51
2022/11/07 09:41:27;;;;;;;4.90;0.93;;;14.90;5.70;;;;;;5053316;28;20408;-49
2022/11/07 09:44:15;;;;;;;5.85;1.55;;;15.00;1.00;;;;;;5071245;28;20407;-52
2022/11/07 09:46:56;;;;;;;8.23;1.17;;;15.10;1.00;;;;;;5072005;28;20447;-49
2022/11/07 09:49:33;;;;;;;6.40;1.10;;;15.10;1.00;;;;;;5072004;28;20408;-50
2022/11/07 09:52:12;;;;;;;8.60;1.15;;;14.90;1.00;;;;;;5071275;28;20384;-49
2022/11/07 09:54:44;;;;;;;6.15;0.90;;;14.90;1.00;;;;;;5071955;28;20425;-50
2022/11/07 09:57:14;;;;;;;7.70;1.13;;;15.00;1.00;;;;;;5070884;28;20367;-50
2022/11/07 09:59:51;;;;;;;5.80;1.27;;;15.10;1.00;;;;;;5071599;28;20375;-51
2022/11/07 10:02:24;;;;;;;6.53;1.35;;;15.20;1.00;;;;;;5071796;28;20917;-51
2022/11/07 10:04:57;;;;;;;5.47;1.80;;;15.30;1.00;;;;;;5071346;28;20403;-56
2022/11/07 10:07:37;;;;;;;6.70;1.17;;;15.40;1.00;;;;;;5071618;28;20380;-51
2022/11/07 10:10:16;;;;;;;6.50;1.30;;;15.30;1.00;;;;;;5070353;28;20726;-51
2022/11/07 10:12:51;;;;;;;8.35;1.00;;;15.50;1.00;;;;;;5071212;28;20379;-51
2022/11/07 10:16:10;;;;;;;6.90;1.10;;;15.60;1.00;;;;;;5071360;28;20384;-51
2022/11/07 10:19:06;;;;;;;9.60;1.40;;;15.50;1.00;;;;;;4989757;28;20394;-52
2022/11/07 10:22:14;;;;;;;7.10;1.17;;;15.10;1.00;;;;;;5071327;28;20399;-52
2022/11/07 10:25:09;;;;;;;8.57;1.50;;;15.90;1.00;;;;;;4989483;28;20406;-52
2022/11/07 10:27:37;;;;;;;5.82;1.13;;;16.00;1.00;;;;;;5070187;28;20503;-49
2022/11/07 10:30:15;;;;;;;7.40;1.30;;;15.90;1.00;;;;;;5070386;28;20380;-49
2022/11/07 10:32:48;;;;;;;7.38;1.60;;;16.10;1.00;;;;;;5070305;28;20465;-49
2022/11/07 10:35:32;;;;;;;6.32;1.70;;;16.20;1.00;;;;;;5070186;28;20401;-50
2022/11/07 10:38:14;;;;;;;7.40;1.10;;;16.00;1.00;;;;;;5070247;28;20441;-50
2022/11/07 10:40:41;;;;;;;6.30;1.10;;;15.90;1.00;;;;;;5070811;28;20439;-51
2022/11/07 10:43:22;;;;;;;7.13;1.70;;;15.90;1.00;;;;;;5068965;28;20395;-52
2022/11/07 10:45:49;;;;;;;5.72;1.13;;;16.00;1.00;;;;;;5070622;28;20376;-51
2022/11/07 10:48:14;;;;;;;8.27;1.10;;;16.20;1.00;;;;;;5070315;28;20408;-52
2022/11/07 10:50:53;;;;;;;8.50;1.53;;;16.60;1.00;;;;;;5070662;28;20416;-51
2022/11/07 10:53:20;;;;;;;5.75;1.25;;;16.70;1.00;;;;;;5070666;28;20853;-52
2022/11/07 10:55:48;;;;;;;5.30;0.85;;;16.80;1.00;;;;;;5070847;28;20388;-51
2022/11/07 10:58:24;;;;;;;5.30;1.00;;;16.90;1.00;;;;;;5069639;28;20392;-51
2022/11/07 11:01:03;;;;;;;7.80;1.50;;;16.90;1.00;;;;;;5052354;28;20411;-57
2022/11/07 11:03:44;;;;;;;5.95;1.15;;;17.10;1.00;;;;;;5070121;28;20391;-51
2022/11/07 11:06:22;;;;;;;7.95;1.10;;;17.00;1.00;;;;;;5069733;28;20379;-52
2022/11/07 11:08:50;;;;;;;5.00;0.90;;;17.20;1.00;;;;;;5070396;28;20383;-52
2022/11/07 11:11:33;;;;;;;7.10;0.90;;;17.10;1.00;;;;;;5069710;28;20386;-51
2022/11/07 11:14:11;;;;;;;7.60;1.30;;;17.30;1.00;;;;;;5068887;28;20791;-50
2022/11/07 11:16:40;;;;;;;6.03;0.93;;;18.20;1.00;;;;;;5070278;28;20388;-52
2022/11/07 11:19:20;;;;;;;8.60;1.13;;;17.00;1.00;;;;;;5069066;28;21016;-51
2022/11/07 11:21:49;;;;;;;6.40;1.20;;;16.70;1.00;;;;;;5070115;28;20412;-52
2022/11/07 11:24:36;;;;;;;6.15;0.90;;;16.60;1.00;;;;;;5069066;28;20737;-52
2022/11/07 11:27:22;;;;;;;5.20;0.90;;;16.50;1.00;;;;;;5069149;28;20380;-51
2022/11/07 11:30:06;;;;;;;5.90;1.00;;;16.60;1.00;;;;;;5069373;28;20411;-51
2022/11/07 11:32:35;;;;;;;6.72;1.20;;;16.50;1.00;;;;;;5069875;28;20761;-52
2022/11/07 11:35:16;;;;;;;6.45;1.10;;;16.50;1.00;;;;;;5069147;28;20407;-52
2022/11/07 11:37:49;;;;;;;6.03;1.30;;;16.30;1.00;;;;;;5069945;28;20411;-52
2022/11/07 11:40:20;;;;;;;7.15;1.73;;;16.00;1.00;;;;;;5069019;28;20408;-52
2022/11/07 11:42:49;;;;;;;6.75;1.60;;;16.20;1.00;;;;;;5069951;28;20380;-52
2022/11/07 11:45:39;;;;;;;6.80;1.20;;;16.00;1.00;;;;;;5068319;28;20535;-52
2022/11/07 11:48:18;;;;;;;6.00;0.80;;;16.20;1.00;;;;;;5068790;28;20475;-52
2022/11/07 11:50:49;;;;;;;5.55;0.77;;;16.00;1.00;;;;;;5069959;28;20435;-52
2022/11/07 11:53:19;;;;;;;6.65;1.27;;;16.00;1.00;;;;;;5068826;28;20382;-52
2022/11/07 11:56:20;;;;;;;5.53;1.10;;;15.90;1.00;;;;;;5069774;28;20379;-51
2022/11/07 11:58:59;;;;;;;6.88;1.20;;;15.80;1.00;;;;;;5069507;28;20461;-52
2022/11/07 12:02:05;;;;;;;5.50;0.85;;;16.00;1.00;;;;;;5068856;28;20407;-54
2022/11/07 12:04:46;;;;;;;6.80;1.25;;;16.00;1.00;;;;;;5068337;28;20947;-50
2022/11/07 12:07:42;;;;;;;9.05;1.05;;;15.90;1.00;;;;;;5068909;28;20525;-50
2022/11/07 12:10:20;;;;;;;5.80;0.90;;;16.00;1.00;;;;;;5068798;28;20387;-50
2022/11/07 12:13:01;;;;;;;6.32;1.13;;;16.40;1.00;;;;;;5069282;28;20451;-50
2022/11/07 12:16:11;;;;;;;9.07;1.30;;;16.80;1.00;;;;;;5069369;28;20880;-50
2022/11/07 12:18:44;;;;;;;5.63;0.85;;;16.80;1.00;;;;;;5069455;28;20376;-49
2022/11/07 12:21:21;;;;;;;6.30;1.10;;;17.20;1.00;;;;;;5068600;28;20460;-50
2022/11/07 12:24:01;;;;;;;6.43;0.90;;;17.50;1.00;;;;;;5069073;28;20475;-50
2022/11/07 12:26:34;;;;;;;6.25;1.00;;;17.90;1.00;;;;;;5069149;28;20384;-51
2022/11/07 12:29:25;;;;;;;5.95;0.90;;;18.20;1.00;;;;;;5068592;28;20383;-50
2022/11/07 12:32:09;;;;;;;6.70;1.40;;;18.30;1.00;;;;;;5069271;28;20391;-51
2022/11/07 12:34:54;;;;;;;6.32;1.70;;;18.30;1.00;;;;;;5069213;28;20873;-50
2022/11/07 12:37:26;;;;;;;6.90;0.90;;;18.20;1.00;;;;;;5069196;28;20383;-51
2022/11/07 12:40:05;;;;;;;6.85;1.00;;;17.90;1.00;;;;;;5069209;28;20523;-55
2022/11/07 12:42:52;;;;;;;5.90;1.30;;;17.90;1.00;;;;;;5069285;28;20860;-50
2022/11/07 12:45:38;;;;;;;5.78;1.05;;;17.90;1.00;;;;;;5068751;28;20383;-50
2022/11/07 12:48:26;;;;;;;8.32;1.20;;;18.00;1.00;;;;;;5068618;28;20426;-51
2022/11/07 12:51:14;;;;;;;5.80;0.90;;;17.60;1.00;;;;;;5068920;28;20376;-55
2022/11/07 12:53:39;;;;;;;6.93;1.00;;;17.60;1.00;;;;;;5069279;28;20478;-51
2022/11/07 12:56:09;;;;;;;6.20;0.90;;;17.70;1.00;;;;;;5069681;28;20471;-50
2022/11/07 12:58:38;;;;;;;5.43;1.00;;;17.70;1.00;;;;;;5072432;28;20414;-50
2022/11/07 13:01:05;;;;;;;5.85;0.95;;;17.40;1.00;;;;;;5071788;28;20411;-50
2022/11/07 13:03:44;;;;;;;4.50;0.70;;;17.50;1.00;;;;;;5072389;28;20400;-51
2022/11/07 13:06:14;;;;;;;5.22;0.77;;;17.70;1.00;;;;;;5072007;28;20782;-51
2022/11/07 13:08:52;;;;;;;5.40;0.90;;;17.70;1.00;;;;;;5073102;28;20407;-50
2022/11/07 13:12:08;;;;;;;5.80;1.20;;;17.80;1.00;;;;;;5072040;28;20419;-50
2022/11/07 13:14:39;;;;;;;6.80;1.00;;;17.70;1.00;;;;;;4990505;28;20450;-52
2022/11/07 13:17:16;;;;;;;5.80;1.00;;;17.60;1.00;;;;;;5029762;28;20480;-50
2022/11/07 13:19:56;;;;;;;6.95;0.98;;;17.20;1.00;;;;;;5052181;28;20389;-50